LFSG

Épinal-Mirecourt Airport

Airport
ICAO code
LFSG
IATA Code
EPL
Summary
ICAO Region
EUR
ICAO Territory
Location

, Lorraine

Serving
Epinal
Elevation
1084 ft
Coordinates
48° 19' 30" N , 6° 4' 12" E
Metar
LFSG 211100Z AUTO 18012KT 9999 FEW019/// SCT210/// ///CB 21/17 Q1014

Runways

Designator Length Width Surface Rops
9/27 2700 45 CON Yes/Yes

Airport map

Aerial View

SKYbrary Partners:

Safety knowledge contributed by: